createdAt,value
2023-11-07T00:01:46.152Z,0.70
2023-11-07T00:04:13.100Z,0.70
2023-11-07T00:06:41.954Z,0.85
2023-11-07T00:09:09.526Z,0.90
2023-11-07T00:11:36.319Z,0.77
2023-11-07T00:14:03.473Z,1.33
2023-11-07T00:16:30.401Z,0.70
2023-11-07T00:19:00.070Z,0.90
2023-11-07T00:21:29.886Z,0.98
2023-11-07T00:23:56.795Z,0.98
2023-11-07T00:26:26.488Z,0.68
2023-11-07T00:28:53.202Z,0.65
2023-11-07T00:31:19.884Z,0.80
2023-11-07T00:33:46.719Z,0.80
2023-11-07T00:38:48.835Z,1.02
2023-11-07T00:41:15.602Z,0.63
2023-11-07T00:43:42.280Z,0.70
2023-11-07T00:46:09.012Z,0.88
2023-11-07T00:52:18.550Z,0.80
2023-11-07T00:54:45.498Z,0.82
2023-11-07T00:57:12.168Z,0.98
2023-11-07T00:59:39.659Z,1.02
2023-11-07T01:02:07.368Z,0.63
2023-11-07T01:04:34.223Z,0.70
2023-11-07T01:07:06.034Z,0.60
2023-11-07T01:09:35.195Z,0.80
2023-11-07T01:12:01.864Z,0.90
2023-11-07T01:14:28.655Z,0.70
2023-11-07T01:16:58.605Z,0.77
2023-11-07T01:19:25.433Z,0.90
2023-11-07T01:21:54.275Z,0.70
2023-11-07T01:24:21.051Z,0.80
2023-11-07T01:26:47.732Z,0.80
2023-11-07T01:29:15.766Z,0.70
2023-11-07T01:31:42.444Z,1.10
2023-11-07T01:34:09.987Z,0.77
2023-11-07T01:36:37.553Z,0.70
2023-11-07T01:39:04.421Z,1.15
2023-11-07T01:41:31.129Z,0.70
2023-11-07T01:44:02.931Z,0.90
2023-11-07T01:46:29.741Z,0.60
2023-11-07T01:48:58.134Z,0.55
2023-11-07T01:51:26.267Z,0.60
2023-11-07T01:53:53.804Z,0.73
2023-11-07T01:56:21.980Z,0.60
2023-11-07T01:58:51.118Z,0.63
2023-11-07T02:01:18.268Z,0.98
2023-11-07T02:03:45.547Z,0.68
2023-11-07T02:08:51.434Z,0.60
2023-11-07T02:11:18.273Z,0.70
2023-11-07T02:13:49.288Z,0.70
2023-11-07T02:16:16.082Z,0.70
2023-11-07T02:18:42.869Z,0.73
2023-11-07T02:21:12.751Z,0.60
2023-11-07T02:23:41.901Z,0.60
2023-11-07T02:26:08.724Z,0.85
2023-11-07T02:28:35.543Z,0.60
2023-11-07T02:31:02.248Z,0.60
2023-11-07T02:33:29.038Z,0.57
2023-11-07T02:35:55.862Z,0.70
2023-11-07T02:38:26.210Z,0.70
2023-11-07T02:40:52.799Z,0.70
2023-11-07T02:43:23.641Z,0.70
2023-11-07T02:45:54.047Z,0.90
2023-11-07T02:48:20.804Z,0.52
2023-11-07T02:50:47.527Z,0.50
2023-11-07T02:53:14.629Z,1.25
2023-11-07T02:55:41.273Z,0.80
2023-11-07T02:58:09.172Z,1.00
2023-11-07T03:00:38.518Z,1.02
2023-11-07T03:03:07.774Z,0.88
2023-11-07T03:05:38.938Z,0.70
2023-11-07T03:08:07.940Z,0.60
2023-11-07T03:10:37.761Z,0.65
2023-11-07T03:13:05.555Z,0.60
2023-11-07T03:15:32.299Z,0.70
2023-11-07T03:17:59.084Z,0.50
2023-11-07T03:20:28.925Z,0.68
2023-11-07T03:22:55.617Z,0.50
2023-11-07T03:25:22.215Z,0.50
2023-11-07T03:27:51.161Z,0.80
2023-11-07T03:30:17.770Z,0.65
2023-11-07T03:32:45.546Z,0.70
2023-11-07T03:35:13.927Z,1.00
2023-11-07T03:37:41.037Z,0.93
2023-11-07T03:40:12.073Z,0.90
2023-11-07T03:42:45.833Z,0.70
2023-11-07T03:45:12.977Z,0.65
2023-11-07T03:47:39.716Z,0.80
2023-11-07T03:50:07.018Z,0.80
2023-11-07T03:52:39.437Z,0.57
2023-11-07T03:55:06.999Z,0.70
2023-11-07T03:57:34.534Z,0.70
2023-11-07T04:00:01.221Z,0.70
2023-11-07T04:02:27.914Z,0.60
2023-11-07T04:04:56.896Z,0.70
2023-11-07T04:07:23.496Z,0.63
2023-11-07T04:09:50.168Z,0.55
2023-11-07T04:12:19.481Z,0.98
2023-11-07T04:14:52.288Z,0.60
2023-11-07T04:17:19.811Z,0.80
2023-11-07T04:19:49.471Z,0.80
2023-11-07T04:22:16.267Z,1.02
2023-11-07T04:24:47.173Z,0.80
2023-11-07T04:27:14.242Z,0.93
2023-11-07T04:29:44.595Z,0.50
2023-11-07T04:32:12.609Z,1.20
2023-11-07T04:34:41.611Z,0.52
2023-11-07T04:37:10.832Z,0.60
2023-11-07T04:39:37.988Z,0.60
2023-11-07T04:42:04.920Z,0.80
2023-11-07T04:44:33.077Z,0.63
2023-11-07T04:47:04.515Z,0.63
2023-11-07T04:49:31.377Z,0.60
2023-11-07T04:52:01.708Z,0.68
2023-11-07T04:54:31.527Z,0.63
2023-11-07T04:56:59.242Z,0.50
2023-11-07T04:59:26.010Z,0.70
2023-11-07T05:01:54.997Z,0.70
2023-11-07T05:04:24.413Z,0.80
2023-11-07T05:06:51.292Z,0.70
2023-11-07T05:09:22.824Z,0.60
2023-11-07T05:11:49.455Z,0.68
2023-11-07T05:14:16.163Z,0.70
2023-11-07T05:16:44.754Z,0.63
2023-11-07T05:19:16.209Z,0.70
2023-11-07T05:21:42.942Z,0.75
2023-11-07T05:24:10.425Z,0.80
2023-11-07T05:26:37.741Z,0.70
2023-11-07T05:29:07.700Z,0.60
2023-11-07T05:31:37.482Z,0.70
2023-11-07T05:34:07.780Z,0.80
2023-11-07T05:36:35.283Z,0.80
2023-11-07T05:39:02.010Z,1.10
2023-11-07T05:41:28.874Z,0.80
2023-11-07T05:43:55.644Z,0.70
2023-11-07T05:46:24.807Z,0.75
2023-11-07T05:48:53.210Z,0.85
2023-11-07T05:51:21.019Z,0.93
2023-11-07T05:53:50.081Z,0.50
2023-11-07T05:56:18.630Z,0.90
2023-11-07T05:58:47.714Z,0.90
2023-11-07T06:01:15.636Z,0.80
2023-11-07T06:03:42.420Z,0.60
2023-11-07T06:06:09.350Z,0.90
2023-11-07T06:08:36.904Z,0.88
2023-11-07T06:11:05.127Z,0.75
2023-11-07T06:13:32.081Z,0.68
2023-11-07T06:15:58.919Z,0.90
2023-11-07T06:18:28.213Z,0.70
2023-11-07T06:20:55.442Z,1.00
2023-11-07T06:23:22.230Z,0.80
2023-11-07T06:25:49.964Z,0.70
2023-11-07T06:28:19.605Z,0.85
2023-11-07T06:30:46.317Z,0.80
2023-11-07T06:33:13.652Z,0.90
2023-11-07T06:35:40.746Z,1.00
2023-11-07T06:38:11.324Z,0.88
2023-11-07T06:40:40.856Z,0.70
2023-11-07T06:43:07.454Z,1.30
2023-11-07T06:45:35.100Z,0.77
2023-11-07T06:48:01.946Z,0.90
2023-11-07T06:50:28.703Z,0.75
2023-11-07T06:53:01.420Z,0.98
2023-11-07T06:55:28.093Z,1.10
2023-11-07T06:57:57.015Z,0.85
2023-11-07T07:00:26.875Z,0.68
2023-11-07T07:02:58.887Z,0.75
2023-11-07T07:05:26.469Z,0.88
2023-11-07T07:07:53.280Z,0.85
2023-11-07T07:10:20.007Z,0.77
2023-11-07T07:12:50.515Z,0.93
2023-11-07T07:15:20.148Z,0.80
2023-11-07T07:17:46.937Z,0.70
2023-11-07T07:20:18.129Z,0.73
2023-11-07T07:22:48.484Z,0.82
2023-11-07T07:25:22.007Z,0.75
2023-11-07T07:27:49.703Z,0.60
2023-11-07T07:30:23.008Z,0.80
2023-11-07T07:32:53.878Z,0.70
2023-11-07T07:35:24.039Z,0.93
2023-11-07T07:37:54.472Z,0.70
2023-11-07T07:40:27.670Z,0.80
2023-11-07T07:42:55.237Z,0.68
2023-11-07T07:45:25.295Z,0.57
2023-11-07T07:47:52.336Z,0.73
2023-11-07T07:50:20.441Z,0.85
2023-11-07T07:52:49.843Z,0.70
2023-11-07T07:55:31.609Z,0.90
2023-11-07T07:58:01.937Z,0.80
2023-11-07T08:00:32.829Z,0.70
2023-11-07T08:03:00.526Z,0.80
2023-11-07T08:05:29.466Z,0.70
2023-11-07T08:07:57.062Z,0.73
2023-11-07T08:10:23.781Z,0.90
2023-11-07T08:12:52.021Z,0.98
2023-11-07T08:15:24.107Z,0.82
2023-11-07T08:17:54.835Z,0.90
2023-11-07T08:20:21.647Z,1.05
2023-11-07T08:22:49.248Z,0.70
2023-11-07T08:25:20.324Z,0.80
2023-11-07T08:27:47.049Z,1.10
2023-11-07T08:30:14.541Z,0.80
2023-11-07T08:32:45.329Z,0.80
2023-11-07T08:35:23.354Z,0.80
2023-11-07T08:37:53.221Z,0.77
2023-11-07T08:40:22.676Z,0.80
2023-11-07T08:42:51.979Z,0.75
2023-11-07T08:45:20.865Z,0.60
2023-11-07T08:47:50.830Z,0.90
2023-11-07T08:50:23.898Z,0.70
2023-11-07T08:52:51.534Z,0.75
2023-11-07T08:55:19.613Z,0.68
2023-11-07T08:57:52.782Z,0.68
2023-11-07T09:00:28.841Z,0.50
2023-11-07T09:02:56.007Z,0.90
2023-11-07T09:05:24.006Z,0.80
2023-11-07T09:07:51.532Z,0.50
2023-11-07T09:10:19.321Z,1.00
2023-11-07T09:12:46.037Z,1.30
2023-11-07T09:15:13.474Z,0.70
2023-11-07T09:17:43.193Z,0.82
2023-11-07T09:20:16.249Z,1.10
2023-11-07T09:22:44.917Z,0.68
2023-11-07T09:25:13.301Z,0.70
2023-11-07T09:27:40.503Z,0.70
2023-11-07T09:30:13.458Z,0.55
2023-11-07T09:32:41.760Z,0.73
2023-11-07T09:35:09.149Z,0.98
2023-11-07T09:37:41.133Z,0.80
2023-11-07T09:40:11.817Z,0.80
2023-11-07T09:42:40.221Z,0.80
2023-11-07T09:45:18.487Z,0.70
2023-11-07T09:47:49.006Z,0.73
2023-11-07T09:50:21.188Z,0.80
2023-11-07T09:52:52.788Z,0.70
2023-11-07T09:55:24.544Z,0.80
2023-11-07T09:58:09.179Z,0.63
2023-11-07T10:00:46.732Z,1.17
2023-11-07T10:03:18.026Z,0.80
2023-11-07T10:05:47.799Z,0.70
2023-11-07T10:08:14.572Z,0.73
2023-11-07T10:10:41.228Z,0.88
2023-11-07T10:13:12.701Z,1.15
2023-11-07T10:15:42.101Z,0.80
2023-11-07T10:18:10.927Z,0.52
2023-11-07T10:20:58.076Z,0.90
2023-11-07T10:23:25.477Z,0.70
2023-11-07T10:25:52.668Z,0.90
2023-11-07T10:28:23.282Z,0.80
2023-11-07T10:30:50.737Z,0.80
2023-11-07T10:33:33.050Z,0.60
2023-11-07T10:36:01.973Z,0.70
2023-11-07T10:38:33.214Z,0.60
2023-11-07T10:41:00.434Z,0.65
2023-11-07T10:43:38.112Z,1.10
2023-11-07T10:46:09.399Z,0.95
2023-11-07T10:48:42.321Z,0.90
2023-11-07T10:51:14.831Z,1.30
2023-11-07T10:53:46.683Z,0.95
2023-11-07T10:56:15.193Z,0.90
2023-11-07T10:58:51.120Z,0.70
2023-11-07T11:01:21.612Z,0.98
2023-11-07T11:03:51.487Z,0.80
2023-11-07T11:06:24.496Z,1.17
2023-11-07T11:08:59.087Z,1.10
2023-11-07T11:11:28.827Z,1.10
2023-11-07T11:14:01.117Z,2.30
2023-11-07T11:16:30.179Z,0.90
2023-11-07T11:19:05.759Z,1.67
2023-11-07T11:21:56.363Z,0.80
2023-11-07T11:24:35.945Z,1.48
2023-11-07T11:27:18.087Z,0.70
2023-11-07T11:29:51.074Z,0.73
2023-11-07T11:32:28.382Z,2.60
2023-11-07T11:35:19.330Z,1.08
2023-11-07T11:38:15.087Z,1.02
2023-11-07T11:41:04.241Z,0.77
2023-11-07T11:43:35.367Z,0.80
2023-11-07T11:49:14.905Z,1.75
2023-11-07T11:51:47.499Z,1.08
2023-11-07T11:54:15.261Z,1.17
2023-11-07T11:56:55.031Z,1.33
2023-11-07T11:59:30.216Z,1.38
2023-11-07T12:02:01.432Z,1.05
2023-11-07T12:04:37.640Z,1.38
2023-11-07T12:07:08.646Z,1.13
2023-11-07T12:09:36.502Z,0.85
2023-11-07T12:12:06.181Z,1.00
2023-11-07T12:14:49.268Z,0.93
2023-11-07T12:17:18.772Z,1.58
2023-11-07T12:19:45.613Z,0.65
2023-11-07T12:22:12.318Z,1.50
2023-11-07T12:24:39.653Z,1.60
2023-11-07T12:27:06.310Z,1.50
2023-11-07T12:29:34.936Z,1.75
2023-11-07T12:32:02.339Z,0.85
2023-11-07T12:34:38.248Z,1.20
2023-11-07T12:37:31.083Z,1.20
2023-11-07T12:40:00.256Z,0.90
2023-11-07T12:42:27.104Z,1.40
2023-11-07T12:44:53.899Z,1.40
2023-11-07T12:47:20.763Z,0.75
2023-11-07T12:49:47.441Z,1.50
2023-11-07T12:52:16.459Z,1.13
2023-11-07T12:54:43.057Z,1.30
2023-11-07T12:57:10.963Z,0.82
2023-11-07T12:59:38.633Z,1.73
2023-11-07T13:02:06.735Z,0.80
2023-11-07T13:04:33.417Z,0.73
2023-11-07T13:07:06.079Z,0.90
2023-11-07T13:09:34.624Z,0.73
2023-11-07T13:12:12.621Z,0.80
2023-11-07T13:14:40.001Z,0.70
2023-11-07T13:17:08.859Z,0.82
2023-11-07T13:19:39.735Z,1.08
2023-11-07T13:22:09.563Z,0.85
2023-11-07T13:24:40.246Z,1.25
2023-11-07T13:27:07.078Z,0.95
2023-11-07T13:29:36.460Z,1.08
2023-11-07T13:32:03.202Z,1.20
2023-11-07T13:34:32.294Z,0.90
2023-11-07T13:36:59.237Z,2.03
2023-11-07T13:39:26.055Z,1.30
2023-11-07T13:41:53.764Z,0.82
2023-11-07T13:44:20.586Z,0.60
2023-11-07T13:46:48.188Z,1.17
2023-11-07T13:49:15.500Z,0.68
2023-11-07T13:51:42.725Z,1.00
2023-11-07T13:54:09.961Z,0.90
2023-11-07T13:56:38.505Z,0.70
2023-11-07T13:59:07.005Z,0.65
2023-11-07T14:01:39.130Z,0.93
2023-11-07T14:04:08.873Z,0.90
2023-11-07T14:06:35.739Z,0.65
2023-11-07T14:09:03.464Z,0.43
2023-11-07T14:11:32.701Z,0.70
2023-11-07T14:13:59.448Z,1.10
2023-11-07T14:16:27.793Z,0.60
2023-11-07T14:18:56.277Z,0.70
2023-11-07T14:21:23.106Z,0.70
2023-11-07T14:23:49.884Z,0.60
2023-11-07T14:26:17.870Z,1.05
2023-11-07T14:28:55.258Z,0.70
2023-11-07T14:31:30.394Z,0.80
2023-11-07T14:33:59.725Z,0.93
2023-11-07T14:39:07.815Z,1.30
2023-11-07T14:41:35.319Z,0.60
2023-11-07T14:44:03.285Z,2.13
2023-11-07T14:46:29.948Z,1.13
2023-11-07T14:48:57.051Z,1.10
2023-11-07T14:51:24.023Z,1.00
2023-11-07T14:53:54.605Z,0.88
2023-11-07T14:56:30.273Z,1.15
2023-11-07T14:58:57.074Z,1.20
2023-11-07T15:01:23.979Z,0.93
2023-11-07T15:03:50.741Z,0.95
2023-11-07T15:06:17.606Z,0.88
2023-11-07T15:08:45.096Z,0.80
2023-11-07T15:11:12.095Z,0.90
2023-11-07T15:13:38.750Z,0.90
2023-11-07T15:16:05.698Z,1.27
2023-11-07T15:18:32.503Z,0.98
2023-11-07T15:20:59.506Z,0.90
2023-11-07T15:23:26.466Z,1.00
2023-11-07T15:25:53.116Z,0.70
2023-11-07T15:30:57.533Z,0.90
2023-11-07T15:33:25.334Z,0.90
2023-11-07T15:35:52.230Z,0.90
2023-11-07T15:38:18.945Z,0.93
2023-11-07T15:40:45.639Z,0.93
2023-11-07T15:43:12.365Z,0.90
2023-11-07T15:45:41.492Z,0.63
2023-11-07T15:48:11.673Z,0.80
2023-11-07T15:50:39.028Z,0.60
2023-11-07T15:53:10.677Z,0.75
2023-11-07T15:55:38.943Z,0.75
2023-11-07T15:58:06.122Z,0.63
2023-11-07T16:00:34.583Z,0.60
2023-11-07T16:03:05.669Z,0.90
2023-11-07T16:05:40.832Z,1.15
2023-11-07T16:08:08.540Z,1.65
2023-11-07T16:10:35.960Z,1.48
2023-11-07T16:13:05.022Z,1.52
2023-11-07T16:15:32.149Z,1.38
2023-11-07T16:17:58.977Z,0.85
2023-11-07T16:20:25.741Z,1.17
2023-11-07T16:22:52.441Z,0.90
2023-11-07T16:25:22.611Z,0.90
2023-11-07T16:27:51.000Z,1.10
2023-11-07T16:30:18.914Z,1.27
2023-11-07T16:32:45.785Z,1.17
2023-11-07T16:35:14.867Z,1.10
2023-11-07T16:37:55.015Z,1.25
2023-11-07T16:40:24.046Z,1.35
2023-11-07T16:42:55.606Z,0.80
2023-11-07T16:45:22.469Z,2.10
2023-11-07T16:47:52.341Z,1.70
2023-11-07T16:50:19.633Z,1.48
2023-11-07T16:52:46.318Z,1.88
2023-11-07T16:55:16.260Z,1.30
2023-11-07T16:57:43.920Z,1.10
2023-11-07T17:00:12.926Z,0.90
2023-11-07T17:02:45.955Z,1.00
2023-11-07T17:05:13.056Z,2.13
2023-11-07T17:07:42.820Z,2.45
2023-11-07T17:10:10.769Z,1.95
2023-11-07T17:12:38.106Z,3.15
2023-11-07T17:15:06.321Z,1.95
2023-11-07T17:17:38.674Z,1.55
2023-11-07T17:20:07.620Z,2.63
2023-11-07T17:22:37.151Z,2.22
2023-11-07T17:25:03.943Z,2.40
2023-11-07T17:27:30.749Z,3.35
2023-11-07T17:29:57.422Z,1.80
2023-11-07T17:32:27.258Z,1.35
2023-11-07T17:34:59.896Z,2.10
2023-11-07T17:37:31.291Z,1.90
2023-11-07T17:39:58.336Z,2.40
2023-11-07T17:42:27.789Z,1.83
2023-11-07T17:44:54.587Z,1.80
2023-11-07T17:47:22.219Z,1.27
2023-11-07T17:49:48.974Z,1.20
2023-11-07T17:52:19.611Z,1.00
2023-11-07T17:54:49.251Z,1.67
2023-11-07T17:57:16.171Z,1.90
2023-11-07T17:59:44.629Z,1.50
2023-11-07T18:02:11.307Z,1.83
2023-11-07T18:04:38.032Z,2.03
2023-11-07T18:07:05.605Z,1.70
2023-11-07T18:09:32.463Z,2.17
2023-11-07T18:11:59.171Z,2.03
2023-11-07T18:14:31.317Z,2.15
2023-11-07T18:16:58.949Z,2.47
2023-11-07T18:19:25.864Z,1.90
2023-11-07T18:21:53.406Z,1.70
2023-11-07T18:24:20.080Z,1.80
2023-11-07T18:26:49.781Z,1.60
2023-11-07T18:29:17.492Z,1.73
2023-11-07T18:31:45.139Z,1.35
2023-11-07T18:34:20.699Z,2.00
2023-11-07T18:37:05.375Z,1.88
2023-11-07T18:39:35.004Z,1.80
2023-11-07T18:42:01.842Z,1.95
2023-11-07T18:44:37.919Z,1.65
2023-11-07T18:47:05.133Z,1.80
2023-11-07T18:49:32.959Z,1.83
2023-11-07T18:52:02.363Z,1.92
2023-11-07T18:54:29.223Z,2.45
2023-11-07T18:56:58.504Z,2.53
2023-11-07T18:59:34.058Z,2.83
2023-11-07T19:02:06.860Z,1.60
2023-11-07T19:04:34.486Z,1.80
2023-11-07T19:07:01.245Z,1.52
2023-11-07T19:09:30.732Z,1.80
2023-11-07T19:12:04.084Z,1.27
2023-11-07T19:14:31.191Z,1.25
2023-11-07T19:16:58.141Z,1.20
2023-11-07T19:19:25.738Z,1.70
2023-11-07T19:22:02.397Z,1.60
2023-11-07T19:24:35.245Z,1.80
2023-11-07T19:27:02.051Z,1.90
2023-11-07T19:29:29.153Z,1.42
2023-11-07T19:31:56.531Z,2.28
2023-11-07T19:34:23.528Z,1.48
2023-11-07T19:36:52.357Z,1.35
2023-11-07T19:39:19.207Z,1.20
2023-11-07T19:41:47.291Z,1.65
2023-11-07T19:44:17.117Z,1.65
2023-11-07T19:46:43.906Z,1.38
2023-11-07T19:49:11.315Z,1.38
2023-11-07T19:51:41.907Z,1.17
2023-11-07T19:54:08.815Z,1.17
2023-11-07T19:56:38.736Z,1.20
2023-11-07T19:59:10.770Z,1.08
2023-11-07T20:01:41.444Z,1.40
2023-11-07T20:04:09.641Z,1.20
2023-11-07T20:06:36.765Z,1.65
2023-11-07T20:09:04.484Z,1.83
2023-11-07T20:11:32.094Z,2.08
2023-11-07T20:13:59.340Z,2.22
2023-11-07T20:16:26.095Z,1.85
2023-11-07T20:18:54.760Z,1.63
2023-11-07T20:21:21.537Z,1.50
2023-11-07T20:23:48.329Z,1.33
2023-11-07T20:26:15.159Z,1.45
2023-11-07T20:28:41.739Z,1.73
2023-11-07T20:31:09.628Z,1.90
2023-11-07T20:33:44.574Z,1.75
2023-11-07T20:36:17.701Z,1.40
2023-11-07T20:38:45.129Z,1.63
2023-11-07T20:41:16.409Z,1.58
2023-11-07T20:43:48.479Z,1.52
2023-11-07T20:46:33.588Z,1.60
2023-11-07T20:49:06.857Z,2.05
2023-11-07T20:51:36.505Z,1.40
2023-11-07T20:54:05.248Z,1.50
2023-11-07T20:56:36.774Z,1.15
2023-11-07T20:59:04.392Z,1.30
2023-11-07T21:01:31.293Z,1.55
2023-11-07T21:03:58.505Z,1.63
2023-11-07T21:06:25.470Z,1.65
2023-11-07T21:08:52.524Z,1.35
2023-11-07T21:11:22.427Z,1.63
2023-11-07T21:13:52.384Z,1.60
2023-11-07T21:16:19.749Z,1.30
2023-11-07T21:18:47.172Z,1.60
2023-11-07T21:21:14.641Z,1.50
2023-11-07T21:23:41.393Z,1.73
2023-11-07T21:26:08.400Z,1.58
2023-11-07T21:28:35.144Z,1.20
2023-11-07T21:31:05.239Z,2.20
2023-11-07T21:33:37.421Z,1.70
2023-11-07T21:36:04.492Z,1.20
2023-11-07T21:38:31.204Z,1.13
2023-11-07T21:41:00.884Z,1.15
2023-11-07T21:43:27.568Z,1.13
2023-11-07T21:45:59.493Z,1.02
2023-11-07T21:48:31.647Z,0.90
2023-11-07T21:50:59.636Z,1.30
2023-11-07T21:53:27.826Z,1.05
2023-11-07T21:55:55.608Z,1.20
2023-11-07T21:58:22.251Z,1.20
2023-11-07T22:00:48.922Z,1.10
2023-11-07T22:03:17.393Z,1.00
2023-11-07T22:05:44.030Z,0.88
2023-11-07T22:08:10.860Z,1.25
2023-11-07T22:10:39.277Z,1.00
2023-11-07T22:13:05.975Z,1.20
2023-11-07T22:15:33.568Z,1.00
2023-11-07T22:18:00.433Z,1.00
2023-11-07T22:20:27.190Z,1.17
2023-11-07T22:22:53.989Z,1.00
2023-11-07T22:25:26.456Z,0.80
2023-11-07T22:27:54.903Z,0.70
2023-11-07T22:30:21.618Z,0.80
2023-11-07T22:32:48.454Z,0.80
2023-11-07T22:35:16.406Z,0.80
2023-11-07T22:37:43.348Z,0.70
2023-11-07T22:40:12.964Z,0.90
2023-11-07T22:42:41.732Z,0.90
2023-11-07T22:45:09.618Z,0.90
2023-11-07T22:50:13.910Z,0.80
2023-11-07T22:52:40.637Z,0.80
2023-11-07T22:55:12.312Z,0.77
2023-11-07T22:57:42.253Z,0.80
2023-11-07T23:00:14.170Z,0.85
2023-11-07T23:02:40.928Z,1.05
2023-11-07T23:05:11.924Z,0.98
2023-11-07T23:07:38.731Z,1.13
2023-11-07T23:10:06.197Z,0.88
2023-11-07T23:12:32.891Z,0.90
2023-11-07T23:15:00.756Z,0.70
2023-11-07T23:17:30.305Z,0.85
2023-11-07T23:19:57.056Z,0.80
2023-11-07T23:22:26.813Z,0.80
2023-11-07T23:24:53.807Z,0.65
2023-11-07T23:27:23.222Z,0.90
2023-11-07T23:29:55.242Z,0.80
2023-11-07T23:32:21.938Z,0.70
2023-11-07T23:34:52.745Z,1.17
2023-11-07T23:37:22.369Z,0.60
2023-11-07T23:39:49.503Z,0.80
2023-11-07T23:42:19.270Z,0.60
2023-11-07T23:44:46.222Z,0.90
2023-11-07T23:47:15.666Z,0.80
2023-11-07T23:49:42.384Z,0.93
2023-11-07T23:52:09.114Z,0.90
2023-11-07T23:54:36.039Z,0.93
2023-11-07T23:57:02.745Z,0.70
2023-11-07T23:59:32.591Z,0.95
